Terminal Aerodrome Forecast
Issued by NWS

Home | Current Version | Previous Version | Text Only | Print | Product List | Glossary On
Versions: 1 2 3 4 5 6 7 8 9 10 11 12 13 14 15 16 17 18 19 20
000
FTUS41 KBGM 201700
TAFITH
TAF
KITH 201726Z 2018/2118 18008KT P6SM OVC070
     FM202300 17006KT P6SM OVC050
      TEMPO 2105/2109 -SHRA
     FM210900 15005KT 6SM -SHRA OVC030 PROB30 2112/2118 3SM -SHRA BR
      OVC012=

USA.gov is the U.S. government's official web portal to all federal, state and local government web resources and services.